createdAt,value
2024-01-11T00:01:30.057Z,97.70
2024-01-11T00:03:56.948Z,97.80
2024-01-11T00:06:24.898Z,97.70
2024-01-11T00:08:51.690Z,97.70
2024-01-11T00:11:18.732Z,98.00
2024-01-11T00:13:45.675Z,97.70
2024-01-11T00:16:12.472Z,97.70
2024-01-11T00:18:39.522Z,97.70
2024-01-11T00:21:06.597Z,97.70
2024-01-11T00:23:33.509Z,97.70
2024-01-11T00:26:00.878Z,97.70
2024-01-11T00:28:27.972Z,97.60
2024-01-11T00:30:54.797Z,97.60
2024-01-11T00:33:21.706Z,97.70
2024-01-11T00:35:48.805Z,97.60
2024-01-11T00:38:15.655Z,97.60
2024-01-11T00:40:42.482Z,97.60
2024-01-11T00:43:09.376Z,97.50
2024-01-11T00:45:36.474Z,97.50
2024-01-11T00:48:04.382Z,98.10
2024-01-11T00:50:31.588Z,97.50
2024-01-11T00:52:58.784Z,97.60
2024-01-11T00:55:25.713Z,97.40
2024-01-11T00:57:52.811Z,97.70
2024-01-11T01:00:19.542Z,97.50
2024-01-11T01:02:46.450Z,97.40
2024-01-11T01:05:13.782Z,97.40
2024-01-11T01:07:41.503Z,97.50
2024-01-11T01:10:09.358Z,97.40
2024-01-11T01:12:36.169Z,97.40
2024-01-11T01:15:02.996Z,97.40
2024-01-11T01:17:29.961Z,97.40
2024-01-11T01:19:56.855Z,97.40
2024-01-11T01:22:23.673Z,97.40
2024-01-11T01:24:50.514Z,97.40
2024-01-11T01:27:18.320Z,97.40
2024-01-11T01:29:45.206Z,97.50
2024-01-11T01:32:12.144Z,97.40
2024-01-11T01:34:39.110Z,97.40
2024-01-11T01:37:05.963Z,97.40
2024-01-11T01:39:32.840Z,97.30
2024-01-11T01:41:59.711Z,97.30
2024-01-11T01:44:26.483Z,97.40
2024-01-11T01:46:53.734Z,97.40
2024-01-11T01:49:23.741Z,97.40
2024-01-11T01:51:51.641Z,97.30
2024-01-11T01:54:19.711Z,97.30
2024-01-11T01:56:46.607Z,97.40
2024-01-11T01:59:14.949Z,97.40
2024-01-11T02:01:41.919Z,97.40
2024-01-11T02:04:08.807Z,97.70
2024-01-11T02:06:36.040Z,97.40
2024-01-11T02:09:06.270Z,97.40
2024-01-11T02:11:33.671Z,97.40
2024-01-11T02:14:00.953Z,97.40
2024-01-11T02:16:27.681Z,97.50
2024-01-11T02:18:54.622Z,97.40
2024-01-11T02:21:24.077Z,97.40
2024-01-11T02:24:09.364Z,97.40
2024-01-11T02:26:36.327Z,97.40
2024-01-11T02:29:03.554Z,97.30
2024-01-11T02:31:30.423Z,97.20
2024-01-11T02:33:58.098Z,97.30
2024-01-11T02:36:26.853Z,97.30
2024-01-11T02:38:54.685Z,97.30
2024-01-11T02:41:22.727Z,97.30
2024-01-11T02:43:50.415Z,97.30
2024-01-11T02:46:18.217Z,97.30
2024-01-11T02:48:45.283Z,97.20
2024-01-11T02:51:12.277Z,97.20
2024-01-11T02:53:39.055Z,97.20
2024-01-11T02:56:11.831Z,97.10
2024-01-11T02:58:38.862Z,97.10
2024-01-11T03:01:05.783Z,97.20
2024-01-11T03:03:32.667Z,97.10
2024-01-11T03:05:59.507Z,97.10
2024-01-11T03:08:28.012Z,97.20
2024-01-11T03:10:54.846Z,97.10
2024-01-11T03:13:21.926Z,97.10
2024-01-11T03:15:48.673Z,97.10
2024-01-11T03:18:15.771Z,97.10
2024-01-11T03:20:42.997Z,97.10
2024-01-11T03:23:10.088Z,97.00
2024-01-11T03:25:36.822Z,96.80
2024-01-11T03:28:03.742Z,97.00
2024-01-11T03:30:31.672Z,97.00
2024-01-11T03:32:58.621Z,97.00
2024-01-11T03:35:25.542Z,97.00
2024-01-11T03:37:52.708Z,97.10
2024-01-11T03:40:19.648Z,97.10
2024-01-11T03:42:46.393Z,97.00
2024-01-11T03:45:13.176Z,97.00
2024-01-11T03:47:40.124Z,97.40
2024-01-11T03:50:07.445Z,97.40
2024-01-11T03:52:34.224Z,97.00
2024-01-11T03:55:00.991Z,97.00
2024-01-11T03:57:27.736Z,96.90
2024-01-11T03:59:54.602Z,97.20
2024-01-11T04:02:21.439Z,96.80
2024-01-11T04:04:48.356Z,96.90
2024-01-11T04:07:15.117Z,96.80
2024-01-11T04:09:42.066Z,97.00
2024-01-11T04:12:09.485Z,97.00
2024-01-11T04:14:41.013Z,96.90
2024-01-11T04:17:08.154Z,96.80
2024-01-11T04:19:35.208Z,96.80
2024-01-11T04:22:01.973Z,96.70
2024-01-11T04:24:28.809Z,96.70
2024-01-11T04:26:55.675Z,96.70
2024-01-11T04:29:22.560Z,96.80
2024-01-11T04:31:49.404Z,96.80
2024-01-11T04:34:16.279Z,96.80
2024-01-11T04:36:43.123Z,96.80
2024-01-11T04:39:09.984Z,96.90
2024-01-11T04:41:40.316Z,96.80
2024-01-11T04:44:07.515Z,96.80
2024-01-11T04:46:34.434Z,96.80
2024-01-11T04:49:01.327Z,96.80
2024-01-11T04:51:28.198Z,96.70
2024-01-11T04:53:55.048Z,96.80
2024-01-11T04:56:22.065Z,96.70
2024-01-11T04:58:48.938Z,96.80
2024-01-11T05:01:17.076Z,96.60
2024-01-11T05:03:47.838Z,96.70
2024-01-11T05:06:23.320Z,96.70
2024-01-11T05:08:53.310Z,96.60
2024-01-11T05:11:22.225Z,96.70
2024-01-11T05:13:50.301Z,96.70
2024-01-11T05:16:28.843Z,96.60
2024-01-11T05:18:57.925Z,96.70
2024-01-11T05:21:25.652Z,96.60
2024-01-11T05:23:53.641Z,96.50
2024-01-11T05:26:21.071Z,96.60
2024-01-11T05:28:48.383Z,96.60
2024-01-11T05:31:16.870Z,96.60
2024-01-11T05:33:44.710Z,96.60
2024-01-11T05:36:11.834Z,96.60
2024-01-11T05:38:40.742Z,96.60
2024-01-11T05:41:07.918Z,97.30
2024-01-11T05:43:34.820Z,96.80
2024-01-11T05:46:02.012Z,96.70
2024-01-11T05:48:28.816Z,96.70
2024-01-11T05:50:55.694Z,96.80
2024-01-11T05:53:22.741Z,96.60
2024-01-11T05:55:51.414Z,96.60
2024-01-11T05:58:19.280Z,96.90
2024-01-11T06:00:46.249Z,96.60
2024-01-11T06:03:13.939Z,96.60
2024-01-11T06:05:41.178Z,96.70
2024-01-11T06:08:08.511Z,96.60
2024-01-11T06:10:35.660Z,96.50
2024-01-11T06:13:02.533Z,96.40
2024-01-11T06:15:29.296Z,96.40
2024-01-11T06:17:56.281Z,96.50
2024-01-11T06:20:23.299Z,96.50
2024-01-11T06:22:50.203Z,96.50
2024-01-11T06:25:17.268Z,96.60
2024-01-11T06:27:45.059Z,96.70
2024-01-11T06:30:12.460Z,96.70
2024-01-11T06:32:39.743Z,96.70
2024-01-11T06:35:07.661Z,96.70
2024-01-11T06:37:34.537Z,96.80
2024-01-11T06:40:01.425Z,96.60
2024-01-11T06:42:28.341Z,96.60
2024-01-11T06:44:55.288Z,96.50
2024-01-11T06:47:22.215Z,96.60
2024-01-11T06:49:49.015Z,96.50
2024-01-11T06:52:15.904Z,96.50
2024-01-11T06:54:43.134Z,96.50
2024-01-11T06:57:10.317Z,96.50
2024-01-11T06:59:37.556Z,96.30
2024-01-11T07:02:05.100Z,96.60
2024-01-11T07:04:34.659Z,96.50
2024-01-11T07:07:01.872Z,96.40
2024-01-11T07:09:29.036Z,96.50
2024-01-11T07:11:55.980Z,96.70
2024-01-11T07:14:23.001Z,96.60
2024-01-11T07:16:56.170Z,96.60
2024-01-11T07:19:23.319Z,96.60
2024-01-11T07:21:50.159Z,96.90
2024-01-11T07:24:17.101Z,96.50
2024-01-11T07:26:43.968Z,96.50
2024-01-11T07:29:11.020Z,96.60
2024-01-11T07:31:38.365Z,96.50
2024-01-11T07:34:06.046Z,96.40
2024-01-11T07:36:32.938Z,96.40
2024-01-11T07:39:00.005Z,96.50
2024-01-11T07:41:27.220Z,96.40
2024-01-11T07:43:55.396Z,96.30
2024-01-11T07:46:29.732Z,96.30
2024-01-11T07:49:04.500Z,96.40
2024-01-11T07:51:31.723Z,96.40
2024-01-11T07:53:58.680Z,96.40
2024-01-11T07:56:25.670Z,96.70
2024-01-11T07:58:52.487Z,96.50
2024-01-11T08:01:19.379Z,96.50
2024-01-11T08:03:46.651Z,96.60
2024-01-11T08:06:13.902Z,96.50
2024-01-11T08:08:41.500Z,96.60
2024-01-11T08:11:09.016Z,96.60
2024-01-11T08:13:36.349Z,96.50
2024-01-11T08:16:05.976Z,96.50
2024-01-11T08:18:32.888Z,96.50
2024-01-11T08:20:59.807Z,96.60
2024-01-11T08:23:26.736Z,96.60
2024-01-11T08:25:56.356Z,96.70
2024-01-11T08:28:23.580Z,96.70
2024-01-11T08:30:50.443Z,96.70
2024-01-11T08:33:17.636Z,96.70
2024-01-11T08:35:45.186Z,96.70
2024-01-11T08:38:13.072Z,96.70
2024-01-11T08:40:39.920Z,96.80
2024-01-11T08:43:07.795Z,96.70
2024-01-11T08:45:34.691Z,97.20
2024-01-11T08:48:01.986Z,96.80
2024-01-11T08:50:29.785Z,96.80
2024-01-11T08:52:57.282Z,96.80
2024-01-11T08:55:24.547Z,96.90
2024-01-11T08:57:51.466Z,97.00
2024-01-11T09:00:19.461Z,96.80
2024-01-11T09:02:49.770Z,96.90
2024-01-11T09:05:17.155Z,97.00
2024-01-11T09:07:44.595Z,97.00
2024-01-11T09:10:12.516Z,97.00
2024-01-11T09:12:39.924Z,97.10
2024-01-11T09:15:07.482Z,97.10
2024-01-11T09:17:34.551Z,96.90
2024-01-11T09:20:01.781Z,97.00
2024-01-11T09:22:29.384Z,97.20
2024-01-11T09:24:56.447Z,97.10
2024-01-11T09:27:23.630Z,97.10
2024-01-11T09:29:53.253Z,97.20
2024-01-11T09:32:22.926Z,97.30
2024-01-11T09:34:50.852Z,97.00
2024-01-11T09:37:17.809Z,97.00
2024-01-11T09:39:44.707Z,97.20
2024-01-11T09:42:14.547Z,97.10
2024-01-11T09:44:42.973Z,97.10
2024-01-11T09:47:15.352Z,97.30
2024-01-11T09:49:46.266Z,97.10
2024-01-11T09:52:16.643Z,97.10
2024-01-11T09:54:43.569Z,97.30
2024-01-11T09:57:11.046Z,97.40
2024-01-11T09:59:38.558Z,97.40
2024-01-11T10:02:09.546Z,97.30
2024-01-11T10:04:38.428Z,97.20
2024-01-11T10:07:07.779Z,97.20
2024-01-11T10:09:34.897Z,97.10
2024-01-11T10:12:01.939Z,97.10
2024-01-11T10:14:29.262Z,97.40
2024-01-11T10:16:56.700Z,97.40
2024-01-11T10:19:23.856Z,97.60
2024-01-11T10:21:51.439Z,97.70
2024-01-11T10:24:23.095Z,98.00
2024-01-11T10:26:50.009Z,97.80
2024-01-11T10:29:19.200Z,97.80
2024-01-11T10:31:46.211Z,97.90
2024-01-11T10:34:13.270Z,97.80
2024-01-11T10:36:42.169Z,97.80
2024-01-11T10:39:11.413Z,97.80
2024-01-11T10:41:42.936Z,97.90
2024-01-11T10:44:24.120Z,97.80
2024-01-11T10:46:52.031Z,97.80
2024-01-11T10:49:19.991Z,97.90
2024-01-11T10:51:54.718Z,97.90
2024-01-11T10:54:22.305Z,97.80
2024-01-11T10:56:51.168Z,97.60
2024-01-11T10:59:22.016Z,97.60
2024-01-11T11:01:49.249Z,97.50
2024-01-11T11:04:17.358Z,97.80
2024-01-11T11:06:44.713Z,97.40
2024-01-11T11:09:14.892Z,97.50
2024-01-11T11:11:42.354Z,97.50
2024-01-11T11:14:11.728Z,97.50
2024-01-11T11:16:38.828Z,97.50
2024-01-11T11:19:05.996Z,97.40
2024-01-11T11:21:32.850Z,97.50
2024-01-11T11:23:59.697Z,97.50
2024-01-11T11:26:28.432Z,97.50
2024-01-11T11:28:55.588Z,97.40
2024-01-11T11:31:36.254Z,97.30
2024-01-11T11:34:05.364Z,97.60
2024-01-11T11:36:33.978Z,97.60
2024-01-11T11:39:02.561Z,97.70
2024-01-11T11:41:34.065Z,97.40
2024-01-11T11:44:05.407Z,97.40
2024-01-11T11:46:34.394Z,97.40
2024-01-11T11:49:01.840Z,97.40
2024-01-11T11:51:29.886Z,97.30
2024-01-11T11:53:58.491Z,97.40
2024-01-11T11:56:25.974Z,97.30
2024-01-11T11:58:54.745Z,97.30
2024-01-11T12:01:22.084Z,97.20
2024-01-11T12:03:53.644Z,97.20
2024-01-11T12:06:26.995Z,97.10
2024-01-11T12:08:57.618Z,97.10
2024-01-11T12:11:25.985Z,97.10
2024-01-11T12:13:54.603Z,97.20
2024-01-11T12:16:21.844Z,97.20
2024-01-11T12:18:51.156Z,97.20
2024-01-11T12:21:18.617Z,97.20
2024-01-11T12:23:46.034Z,97.10
2024-01-11T12:26:14.802Z,97.20
2024-01-11T12:28:43.873Z,96.60
2024-01-11T12:31:11.228Z,97.20
2024-01-11T12:33:40.122Z,97.30
2024-01-11T12:36:09.437Z,97.40
2024-01-11T12:38:37.134Z,97.20
2024-01-11T12:41:05.780Z,97.20
2024-01-11T12:43:33.115Z,97.20
2024-01-11T12:46:00.711Z,97.20
2024-01-11T12:48:27.977Z,97.20
2024-01-11T12:51:05.913Z,97.20
2024-01-11T12:53:42.063Z,97.20
2024-01-11T12:56:11.991Z,97.20
2024-01-11T12:58:40.121Z,97.20
2024-01-11T13:01:11.699Z,97.20
2024-01-11T13:03:40.722Z,97.20
2024-01-11T13:06:08.127Z,97.20
2024-01-11T13:08:40.788Z,97.20
2024-01-11T13:11:10.674Z,97.30
2024-01-11T13:13:37.788Z,97.40
2024-01-11T13:16:11.862Z,97.30
2024-01-11T13:18:38.868Z,97.30
2024-01-11T13:21:07.990Z,97.30
2024-01-11T13:23:35.235Z,97.20
2024-01-11T13:26:03.791Z,97.30
2024-01-11T13:28:31.318Z,97.10
2024-01-11T13:30:58.364Z,96.90
2024-01-11T13:33:25.454Z,96.90
2024-01-11T13:35:53.092Z,97.20
2024-01-11T13:38:22.613Z,96.70
2024-01-11T13:40:52.188Z,96.70
2024-01-11T13:43:19.521Z,96.50
2024-01-11T13:45:46.967Z,96.60
2024-01-11T13:48:14.268Z,96.50
2024-01-11T13:50:41.307Z,96.60
2024-01-11T13:53:08.360Z,96.40
2024-01-11T13:55:41.679Z,96.40
2024-01-11T13:58:09.515Z,96.50
2024-01-11T14:00:36.862Z,96.50
2024-01-11T14:03:06.624Z,96.40
2024-01-11T14:05:34.950Z,96.80
2024-01-11T14:08:02.722Z,96.40
2024-01-11T14:10:30.014Z,96.50
2024-01-11T14:12:57.232Z,96.40
2024-01-11T14:15:25.201Z,96.30
2024-01-11T14:17:52.497Z,96.40
2024-01-11T14:20:19.648Z,96.30
2024-01-11T14:22:50.156Z,96.30
2024-01-11T14:25:21.987Z,96.20
2024-01-11T14:27:50.164Z,96.20
2024-01-11T14:30:17.986Z,96.30
2024-01-11T14:32:46.456Z,96.30
2024-01-11T14:35:13.991Z,96.20
2024-01-11T14:37:41.301Z,96.30
2024-01-11T14:40:12.725Z,96.20
2024-01-11T14:42:40.214Z,96.30
2024-01-11T14:45:08.084Z,96.30
2024-01-11T14:47:35.645Z,96.30
2024-01-11T14:50:05.108Z,96.20
2024-01-11T14:52:32.766Z,96.10
2024-01-11T14:55:00.613Z,96.10
2024-01-11T14:57:27.854Z,96.20
2024-01-11T14:59:54.787Z,96.20
2024-01-11T15:02:22.011Z,96.20
2024-01-11T15:04:49.718Z,96.30
2024-01-11T15:07:16.627Z,96.20
2024-01-11T15:09:44.079Z,96.30
2024-01-11T15:12:11.146Z,96.40
2024-01-11T15:14:38.394Z,96.50
2024-01-11T15:17:05.625Z,96.50
2024-01-11T15:19:32.945Z,96.50
2024-01-11T15:22:00.856Z,96.50
2024-01-11T15:24:29.406Z,96.60
2024-01-11T15:26:56.949Z,96.60
2024-01-11T15:29:23.982Z,96.60
2024-01-11T15:31:51.510Z,96.50
2024-01-11T15:34:18.616Z,96.60
2024-01-11T15:36:45.757Z,96.60
2024-01-11T15:39:20.867Z,96.60
2024-01-11T15:41:56.017Z,96.60
2024-01-11T15:44:23.936Z,96.80
2024-01-11T15:46:51.237Z,96.90
2024-01-11T15:49:18.193Z,96.90
2024-01-11T15:51:45.979Z,97.00
2024-01-11T15:54:13.075Z,97.00
2024-01-11T15:56:40.207Z,97.10
2024-01-11T15:59:08.498Z,97.20
2024-01-11T16:01:46.601Z,97.20
2024-01-11T16:04:22.943Z,97.40
2024-01-11T16:06:50.181Z,97.50
2024-01-11T16:09:17.216Z,97.50
2024-01-11T16:11:44.079Z,97.50
2024-01-11T16:14:10.983Z,97.50
2024-01-11T16:16:38.306Z,97.60
2024-01-11T16:19:05.375Z,97.70
2024-01-11T16:21:32.828Z,97.70
2024-01-11T16:24:02.899Z,97.80
2024-01-11T16:26:30.489Z,97.70
2024-01-11T16:28:58.145Z,97.80
2024-01-11T16:31:25.346Z,97.80
2024-01-11T16:33:52.766Z,97.90
2024-01-11T16:36:19.658Z,97.90
2024-01-11T16:38:46.671Z,97.90
2024-01-11T16:41:13.749Z,97.90
2024-01-11T16:43:41.040Z,98.00
2024-01-11T16:46:08.934Z,98.00
2024-01-11T16:48:36.151Z,98.00
2024-01-11T16:51:03.557Z,98.00
2024-01-11T16:53:31.305Z,98.00
2024-01-11T16:55:58.310Z,98.10
2024-01-11T16:58:25.289Z,98.00
2024-01-11T17:00:52.134Z,98.10
2024-01-11T17:03:19.332Z,98.10
2024-01-11T17:05:46.147Z,98.10
2024-01-11T17:08:12.949Z,98.10
2024-01-11T17:10:40.580Z,98.10
2024-01-11T17:13:08.607Z,98.10
2024-01-11T17:15:36.429Z,98.10
2024-01-11T17:18:03.805Z,98.10
2024-01-11T17:20:31.749Z,98.20
2024-01-11T17:22:58.694Z,98.20
2024-01-11T17:25:25.678Z,98.30
2024-01-11T17:27:52.610Z,98.20
2024-01-11T17:30:19.754Z,98.40
2024-01-11T17:32:46.711Z,98.90
2024-01-11T17:35:13.736Z,98.40
2024-01-11T17:37:40.702Z,98.20
2024-01-11T17:40:08.168Z,98.20
2024-01-11T17:42:35.149Z,98.20
2024-01-11T17:45:02.364Z,98.20
2024-01-11T17:47:29.576Z,98.20
2024-01-11T17:49:56.531Z,98.20
2024-01-11T17:52:23.424Z,98.30
2024-01-11T17:54:50.201Z,98.20
2024-01-11T17:57:17.221Z,98.30
2024-01-11T17:59:44.660Z,98.20
2024-01-11T18:02:11.541Z,98.10
2024-01-11T18:04:38.421Z,98.10
2024-01-11T18:07:05.653Z,98.10
2024-01-11T18:09:35.161Z,98.10
2024-01-11T18:12:02.206Z,98.20
2024-01-11T18:14:29.083Z,98.10
2024-01-11T18:16:55.917Z,98.50
2024-01-11T18:19:22.961Z,98.20
2024-01-11T18:21:49.787Z,98.20
2024-01-11T18:24:16.721Z,98.20
2024-01-11T18:26:43.849Z,98.30
2024-01-11T18:29:10.861Z,98.00
2024-01-11T18:31:38.488Z,98.00
2024-01-11T18:34:05.394Z,98.00
2024-01-11T18:36:32.383Z,98.00
2024-01-11T18:39:00.048Z,98.10
2024-01-11T18:41:27.014Z,98.10
2024-01-11T18:43:54.730Z,98.20
2024-01-11T18:46:22.032Z,98.00
2024-01-11T18:48:49.377Z,98.00
2024-01-11T18:51:16.355Z,98.20
2024-01-11T18:53:44.205Z,97.90
2024-01-11T18:56:17.120Z,97.90
2024-01-11T18:58:44.160Z,98.20
2024-01-11T19:01:11.027Z,97.90
2024-01-11T19:03:41.126Z,98.00
2024-01-11T19:06:09.011Z,98.00
2024-01-11T19:08:37.083Z,98.00
2024-01-11T19:11:04.396Z,98.00
2024-01-11T19:13:31.359Z,98.10
2024-01-11T19:15:58.300Z,98.20
2024-01-11T19:18:25.167Z,98.00
2024-01-11T19:20:54.809Z,97.90
2024-01-11T19:23:27.010Z,98.20
2024-01-11T19:25:58.351Z,98.00
2024-01-11T19:28:25.626Z,98.00
2024-01-11T19:30:52.566Z,98.10
2024-01-11T19:33:19.744Z,98.00
2024-01-11T19:35:47.143Z,98.00
2024-01-11T19:38:14.842Z,97.90
2024-01-11T19:40:41.966Z,97.80
2024-01-11T19:43:08.932Z,97.80
2024-01-11T19:45:35.918Z,97.90
2024-01-11T19:48:03.203Z,97.80
2024-01-11T19:50:32.220Z,98.00
2024-01-11T19:52:59.156Z,98.00
2024-01-11T19:55:25.927Z,98.00
2024-01-11T19:57:53.048Z,98.00
2024-01-11T20:00:19.946Z,98.20
2024-01-11T20:02:46.957Z,97.90
2024-01-11T20:05:14.430Z,97.90
2024-01-11T20:07:41.347Z,97.90
2024-01-11T20:10:08.582Z,97.90
2024-01-11T20:12:35.783Z,97.90
2024-01-11T20:15:02.861Z,98.00
2024-01-11T20:17:29.999Z,98.30
2024-01-11T20:19:56.894Z,97.80
2024-01-11T20:22:23.675Z,98.00
2024-01-11T20:24:52.105Z,97.90
2024-01-11T20:27:20.019Z,97.90
2024-01-11T20:29:46.979Z,97.90
2024-01-11T20:32:13.863Z,97.90
2024-01-11T20:34:40.780Z,98.10
2024-01-11T20:37:07.689Z,98.10
2024-01-11T20:39:34.436Z,97.90
2024-01-11T20:42:01.247Z,97.90
2024-01-11T20:44:28.074Z,97.90
2024-01-11T20:46:55.601Z,98.00
2024-01-11T20:49:22.423Z,97.80
2024-01-11T20:51:49.412Z,97.80
2024-01-11T20:54:17.562Z,97.80
2024-01-11T20:56:45.199Z,97.90
2024-01-11T20:59:12.709Z,97.80
2024-01-11T21:01:39.728Z,97.80
2024-01-11T21:04:06.815Z,97.80
2024-01-11T21:06:33.969Z,97.80
2024-01-11T21:09:01.311Z,97.70
2024-01-11T21:11:28.516Z,97.60
2024-01-11T21:13:56.024Z,97.70
2024-01-11T21:16:22.859Z,97.70
2024-01-11T21:18:54.171Z,97.60
2024-01-11T21:21:24.846Z,97.70
2024-01-11T21:24:00.825Z,97.80
2024-01-11T21:26:29.127Z,97.70
2024-01-11T21:28:56.706Z,97.80
2024-01-11T21:31:25.193Z,97.70
2024-01-11T21:33:53.011Z,97.60
2024-01-11T21:36:26.376Z,97.70
2024-01-11T21:38:56.014Z,97.70
2024-01-11T21:41:23.704Z,97.70
2024-01-11T21:43:51.985Z,97.70
2024-01-11T21:46:19.234Z,97.70
2024-01-11T21:48:46.459Z,97.80
2024-01-11T21:51:13.632Z,97.90
2024-01-11T21:53:41.712Z,98.20
2024-01-11T21:56:09.235Z,97.80
2024-01-11T21:58:37.350Z,97.70
2024-01-11T22:01:04.829Z,97.60
2024-01-11T22:03:35.349Z,97.60
2024-01-11T22:06:02.379Z,97.70
2024-01-11T22:08:29.446Z,98.40
2024-01-11T22:10:56.378Z,97.70
2024-01-11T22:13:23.226Z,97.70
2024-01-11T22:15:50.181Z,97.70
2024-01-11T22:18:17.536Z,97.60
2024-01-11T22:20:44.894Z,97.70
2024-01-11T22:23:12.579Z,97.70
2024-01-11T22:25:39.877Z,97.60
2024-01-11T22:28:06.779Z,97.40
2024-01-11T22:30:34.320Z,97.40
2024-01-11T22:33:01.613Z,97.60
2024-01-11T22:35:28.703Z,97.50
2024-01-11T22:37:56.492Z,97.50
2024-01-11T22:40:23.516Z,97.60
2024-01-11T22:42:50.387Z,97.70
2024-01-11T22:45:17.142Z,97.70
2024-01-11T22:47:44.197Z,97.60
2024-01-11T22:50:11.216Z,97.60
2024-01-11T22:52:38.018Z,97.60
2024-01-11T22:55:05.855Z,97.50
2024-01-11T22:57:34.513Z,97.50
2024-01-11T23:00:01.336Z,97.60
2024-01-11T23:02:28.273Z,97.50
2024-01-11T23:04:55.082Z,97.50
2024-01-11T23:07:22.008Z,97.40
2024-01-11T23:09:51.273Z,97.50
2024-01-11T23:12:17.992Z,97.40
2024-01-11T23:14:45.125Z,97.40
2024-01-11T23:17:11.955Z,97.40
2024-01-11T23:19:39.010Z,97.50
2024-01-11T23:22:05.958Z,97.60
2024-01-11T23:24:32.726Z,97.70
2024-01-11T23:26:59.981Z,97.70
2024-01-11T23:29:27.136Z,97.80
2024-01-11T23:31:54.030Z,98.10
2024-01-11T23:34:20.876Z,97.80
2024-01-11T23:36:47.623Z,97.80
2024-01-11T23:39:14.429Z,97.80
2024-01-11T23:41:42.747Z,97.90
2024-01-11T23:44:09.765Z,97.80
2024-01-11T23:46:36.727Z,97.80
2024-01-11T23:49:03.856Z,97.80
2024-01-11T23:51:31.150Z,97.60
2024-01-11T23:53:58.174Z,97.50
2024-01-11T23:56:25.052Z,97.50
2024-01-11T23:58:52.157Z,97.50
